Time;durP1;ratioP1;P1;durP2;ratioP2;P2;SDS_P1;SDS_P2;PMS_P1;PMS_P2;Temp;Humidity;BMP_temperature;BMP_pressure;BME280_temperature;BME280_humidity;BME280_pressure;Samples;Min_cycle;Max_cycle;Signal;HPM_P1;HPM_P2
2023/09/26 00:02:23;;;;;;;9.48;4.90;;;;;;;19.17;76.05;102272.25;5031649;28;20034;-45
2023/09/26 00:04:49;;;;;;;10.25;5.20;;;;;;;19.21;75.93;102275.78;5032413;28;20061;-48
2023/09/26 00:07:14;;;;;;;12.55;6.20;;;;;;;19.24;75.86;102279.31;5032114;28;20065;-45
2023/09/26 00:09:39;;;;;;;11.00;5.63;;;;;;;19.22;75.89;102274.88;5031900;28;20037;-47
2023/09/26 00:12:05;;;;;;;11.00;5.55;;;;;;;19.20;76.13;102271.38;5032072;28;20156;-44
2023/09/26 00:14:30;;;;;;;12.82;6.30;;;;;;;19.27;75.98;102281.94;5031501;28;20124;-43
2023/09/26 00:16:55;;;;;;;9.43;5.68;;;;;;;19.30;75.81;102276.66;5031725;28;20029;-47
2023/09/26 00:19:21;;;;;;;10.18;6.43;;;;;;;19.32;75.90;102282.84;5031860;28;20037;-43
2023/09/26 00:21:47;;;;;;;11.82;6.60;;;;;;;19.26;76.33;102289.88;5031568;28;20034;-43
2023/09/26 00:24:13;;;;;;;10.77;6.82;;;;;;;19.21;76.64;102289.88;5032206;28;20037;-45
2023/09/26 00:26:38;;;;;;;11.60;7.32;;;;;;;18.93;77.91;102291.63;5031538;28;20038;-44
2023/09/26 00:29:03;;;;;;;10.90;6.78;;;;;;;19.26;76.99;102293.41;5032013;28;20033;-43
2023/09/26 00:31:29;;;;;;;11.45;6.35;;;;;;;19.27;76.57;102284.56;5031254;28;20029;-45
2023/09/26 00:33:54;;;;;;;14.30;7.18;;;;;;;19.37;76.29;102285.47;5032262;28;20537;-44
2023/09/26 00:36:19;;;;;;;12.25;6.80;;;;;;;19.57;75.55;102286.38;5031929;28;20448;-47
2023/09/26 00:38:45;;;;;;;11.40;6.75;;;;;;;19.58;75.22;102285.47;5031045;28;20037;-43
2023/09/26 00:41:10;;;;;;;10.65;6.75;;;;;;;19.52;75.87;102289.91;5033408;28;20095;-46
2023/09/26 00:43:36;;;;;;;10.60;6.68;;;;;;;19.55;75.43;102276.66;5035532;28;20044;-48
2023/09/26 00:46:04;;;;;;;12.15;6.82;;;;;;;19.56;75.26;102281.97;5053136;28;20044;-47
2023/09/26 00:48:29;;;;;;;12.25;7.03;;;;;;;19.66;74.43;102280.19;5037046;28;20116;-45
2023/09/26 00:50:56;;;;;;;11.65;6.65;;;;;;;19.88;73.33;102279.28;5032558;28;20186;-46
2023/09/26 00:53:23;;;;;;;9.70;6.40;;;;;;;19.78;73.38;102282.81;5032682;28;20033;-43
2023/09/26 00:55:59;;;;;;;9.52;5.90;;;;;;;19.70;73.63;102282.81;5032656;28;20036;-44
2023/09/26 00:58:25;;;;;;;11.55;6.30;;;;;;;19.58;74.12;102279.34;5030861;28;20450;-43
2023/09/26 01:00:55;;;;;;;11.27;6.38;;;;;;;19.53;73.99;102276.66;5031385;28;20044;-42
2023/09/26 01:03:21;;;;;;;11.88;6.97;;;;;;;19.43;74.67;102281.06;5031729;28;20132;-44
2023/09/26 01:05:46;;;;;;;10.52;6.80;;;;;;;19.37;75.15;102283.72;5030678;28;20029;-43
2023/09/26 01:08:11;;;;;;;13.10;7.30;;;;;;;19.17;75.59;102277.53;5031028;28;20040;-43
2023/09/26 01:10:37;;;;;;;10.45;6.85;;;;;;;19.38;75.01;102274.91;5030315;28;20037;-45
2023/09/26 01:13:03;;;;;;;11.55;6.65;;;;;;;19.67;73.07;102280.19;5031055;28;20116;-46
2023/09/26 01:15:40;;;;;;;10.52;6.40;;;;;;;19.66;72.59;102272.25;5030295;28;20033;-48
2023/09/26 01:18:13;;;;;;;9.75;6.80;;;;;;;19.57;73.21;102277.56;5031025;28;20057;-47
2023/09/26 01:20:39;;;;;;;11.65;6.50;;;;;;;19.43;73.65;102281.06;5030121;28;20044;-44
2023/09/26 01:23:06;;;;;;;11.73;7.10;;;;;;;19.33;74.20;102274.00;5030999;28;20407;-45
2023/09/26 01:25:33;;;;;;;12.80;7.20;;;;;;;19.09;75.50;102274.00;5030385;28;20087;-44
2023/09/26 01:28:04;;;;;;;12.30;7.15;;;;;;;19.07;75.13;102273.13;5030834;28;20493;-46
2023/09/26 01:30:30;;;;;;;14.35;7.25;;;;;;;18.98;75.69;102276.63;5030209;28;20525;-42
2023/09/26 01:32:55;;;;;;;9.98;6.97;;;;;;;19.30;74.43;102268.72;5030700;28;20025;-44
2023/09/26 01:35:20;;;;;;;10.48;6.97;;;;;;;19.34;73.63;102257.25;5030945;28;20484;-44
2023/09/26 01:37:49;;;;;;;11.82;7.30;;;;;;;19.19;74.49;102253.75;5029934;28;20488;-45
2023/09/26 01:40:15;;;;;;;15.65;7.55;;;;;;;19.11;74.63;102255.50;5029375;28;20033;-46
2023/09/26 01:42:41;;;;;;;13.10;7.80;;;;;;;19.30;73.71;102239.63;5030034;28;20038;-43
2023/09/26 01:45:07;;;;;;;16.30;8.00;;;;;;;19.04;74.63;102251.97;5030637;28;20099;-43
2023/09/26 01:47:42;;;;;;;15.10;8.00;;;;;;;19.10;74.35;102240.53;5030047;28;20043;-43
2023/09/26 01:50:08;;;;;;;15.55;8.45;;;;;;;19.22;73.64;102244.03;5030326;28;20076;-44
2023/09/26 01:52:35;;;;;;;12.63;8.27;;;;;;;19.19;73.61;102241.41;5030178;28;20042;-48
2023/09/26 01:55:02;;;;;;;13.30;8.68;;;;;;;19.19;73.72;102238.78;5030526;28;20569;-47
2023/09/26 01:57:27;;;;;;;12.90;8.27;;;;;;;19.10;73.78;102236.13;5029662;28;20095;-43
2023/09/26 01:59:53;;;;;;;13.10;8.30;;;;;;;19.39;72.35;102231.69;5030351;28;20068;-46
2023/09/26 02:02:19;;;;;;;12.40;7.80;;;;;;;19.42;71.53;102230.81;5029938;28;20041;-44
2023/09/26 02:04:44;;;;;;;12.02;7.28;;;;;;;19.35;71.33;102226.41;5029614;28;20565;-46
2023/09/26 02:07:09;;;;;;;12.75;7.53;;;;;;;19.28;71.13;102236.09;5030104;28;20079;-44
2023/09/26 02:09:35;;;;;;;11.80;7.35;;;;;;;19.15;71.49;102239.63;5029942;28;20045;-45
2023/09/26 02:12:03;;;;;;;11.77;7.45;;;;;;;19.09;71.46;102237.00;5029824;28;20059;-44
2023/09/26 02:14:29;;;;;;;11.77;7.50;;;;;;;19.03;71.48;102240.50;5029650;28;20045;-48
2023/09/26 02:16:54;;;;;;;13.40;7.60;;;;;;;18.98;71.79;102230.81;5030447;28;20549;-43
2023/09/26 02:19:19;;;;;;;15.07;8.35;;;;;;;18.96;72.06;102233.50;5031050;28;20040;-44
2023/09/26 02:21:45;;;;;;;11.68;7.28;;;;;;;18.93;72.25;102230.84;5030052;28;20041;-46
2023/09/26 02:24:10;;;;;;;15.95;8.77;;;;;;;18.92;72.43;102228.19;5030866;28;20033;-43
2023/09/26 02:26:36;;;;;;;15.18;8.77;;;;;;;18.90;72.44;102228.22;5030118;28;20037;-43
2023/09/26 02:29:01;;;;;;;12.90;8.23;;;;;;;18.88;72.33;102222.03;5030003;28;20064;-46
2023/09/26 02:31:26;;;;;;;13.57;7.95;;;;;;;18.83;72.22;102228.19;5029303;28;20556;-45
2023/09/26 02:33:52;;;;;;;13.45;7.70;;;;;;;18.78;72.20;102227.31;5029725;28;20132;-44
2023/09/26 02:36:18;;;;;;;14.13;8.75;;;;;;;18.75;72.38;102235.22;5030648;28;20146;-43
2023/09/26 02:38:44;;;;;;;14.93;9.38;;;;;;;18.72;72.48;102232.59;5031050;28;20040;-46
2023/09/26 02:41:09;;;;;;;13.18;8.30;;;;;;;18.69;72.63;102230.81;5031343;28;20549;-43
2023/09/26 02:43:34;;;;;;;14.00;8.02;;;;;;;18.71;73.14;102228.19;5032245;28;20042;-43
2023/09/26 02:46:00;;;;;;;14.98;8.10;;;;;;;18.68;72.87;102220.22;5032614;28;20037;-43
2023/09/26 02:48:25;;;;;;;13.73;8.75;;;;;;;18.69;72.94;102217.59;5031890;28;20021;-44
2023/09/26 02:50:50;;;;;;;13.48;8.48;;;;;;;18.68;72.73;102221.13;5031706;28;20033;-45
2023/09/26 02:53:16;;;;;;;12.95;8.20;;;;;;;18.64;73.12;102222.00;5030967;28;20053;-45
2023/09/26 02:55:41;;;;;;;13.68;8.88;;;;;;;18.64;73.13;102220.25;5030341;28;20038;-43
2023/09/26 02:58:06;;;;;;;14.05;9.23;;;;;;;18.58;73.28;102220.25;5031064;28;20037;-45
2023/09/26 03:00:32;;;;;;;15.38;9.63;;;;;;;18.54;73.51;102225.47;5030829;28;20037;-43
2023/09/26 03:02:57;;;;;;;14.75;8.98;;;;;;;18.55;73.43;102220.22;5034941;28;20487;-43
2023/09/26 03:05:22;;;;;;;14.38;9.13;;;;;;;18.57;73.07;102221.09;5033989;28;20026;-43
2023/09/26 03:07:48;;;;;;;17.08;9.65;;;;;;;18.55;73.60;102214.03;5034240;28;20033;-43
2023/09/26 03:10:14;;;;;;;14.35;9.20;;;;;;;18.59;73.21;102197.34;5034578;28;20030;-46
2023/09/26 03:12:46;;;;;;;14.98;9.27;;;;;;;18.60;73.55;102197.31;5033710;28;20075;-44
2023/09/26 03:15:12;;;;;;;17.15;10.05;;;;;;;18.57;74.04;102202.63;5034481;28;20537;-45
2023/09/26 03:17:37;;;;;;;13.35;8.80;;;;;;;18.59;73.80;102203.50;5033886;28;20037;-43
2023/09/26 03:20:04;;;;;;;14.88;8.50;;;;;;;18.58;73.86;102204.38;5034020;28;20038;-50
2023/09/26 03:22:29;;;;;;;16.48;9.60;;;;;;;18.61;73.86;102203.50;5033601;28;20030;-43
2023/09/26 03:24:55;;;;;;;12.90;9.25;;;;;;;18.66;73.70;102203.53;5034094;28;20040;-43
2023/09/26 03:27:21;;;;;;;14.65;9.65;;;;;;;18.62;73.87;102186.78;5034279;28;20052;-43
2023/09/26 03:29:49;;;;;;;16.63;10.02;;;;;;;18.61;74.22;102190.28;5033165;28;20034;-45
2023/09/26 03:32:14;;;;;;;14.15;9.40;;;;;;;18.66;74.24;102193.84;5033564;28;20395;-45
2023/09/26 03:34:40;;;;;;;15.20;9.50;;;;;;;18.71;74.47;102192.06;5034320;28;20033;-43
2023/09/26 03:37:05;;;;;;;15.95;10.05;;;;;;;18.74;74.52;102183.25;5033989;28;20033;-43
2023/09/26 03:39:30;;;;;;;15.77;9.93;;;;;;;18.76;74.34;102181.50;5033028;28;20515;-46
2023/09/26 03:41:56;;;;;;;17.25;9.82;;;;;;;18.75;74.31;102179.75;5033104;28;20052;-44
2023/09/26 03:44:21;;;;;;;13.65;8.50;;;;;;;18.75;73.93;102174.44;5033362;28;20056;-43
2023/09/26 03:46:46;;;;;;;17.05;10.45;;;;;;;18.57;74.75;102185.88;5032310;28;20033;-43
2023/09/26 03:49:13;;;;;;;19.88;10.85;;;;;;;18.61;74.35;102185.00;5032413;28;20033;-46
2023/09/26 03:51:38;;;;;;;17.15;10.02;;;;;;;18.58;74.15;102177.97;5031791;28;20040;-43
2023/09/26 03:54:03;;;;;;;17.45;10.60;;;;;;;18.55;74.22;102174.44;5032438;28;20500;-46
2023/09/26 03:56:29;;;;;;;17.52;10.75;;;;;;;18.49;74.45;102175.28;5031923;28;20120;-43
2023/09/26 03:58:56;;;;;;;16.95;10.15;;;;;;;18.43;74.51;102177.03;5032229;28;20029;-44
2023/09/26 04:01:22;;;;;;;15.73;9.50;;;;;;;18.38;74.63;102177.03;5030484;28;20388;-43
2023/09/26 04:03:48;;;;;;;15.02;9.68;;;;;;;18.34;74.70;102169.97;5032450;28;20120;-48
2023/09/26 04:06:17;;;;;;;17.02;10.15;;;;;;;18.33;74.73;102165.56;5032206;28;20033;-43
2023/09/26 04:08:42;;;;;;;13.85;9.45;;;;;;;18.35;74.49;102162.94;5031909;28;20512;-44
2023/09/26 04:11:15;;;;;;;17.35;10.00;;;;;;;18.35;74.40;102155.03;5032125;28;20030;-45
2023/09/26 04:13:41;;;;;;;15.35;9.40;;;;;;;18.30;74.73;102162.91;5030404;28;20048;-43
2023/09/26 04:16:06;;;;;;;15.07;9.68;;;;;;;18.33;74.57;102162.06;5031829;28;20033;-42
2023/09/26 04:18:31;;;;;;;18.65;10.15;;;;;;;18.27;74.77;102168.19;5031696;28;20029;-41
2023/09/26 04:21:01;;;;;;;17.83;10.63;;;;;;;18.25;74.89;102170.81;5031972;28;20099;-46
2023/09/26 04:23:27;;;;;;;15.73;9.57;;;;;;;18.33;74.83;102172.59;5031647;28;20491;-41
2023/09/26 04:25:53;;;;;;;15.60;9.82;;;;;;;18.33;74.98;102169.97;5032100;28;20047;-41
2023/09/26 04:28:18;;;;;;;14.30;9.02;;;;;;;18.33;75.05;102167.31;5032120;28;20033;-44
2023/09/26 04:30:44;;;;;;;17.58;10.15;;;;;;;18.23;75.57;102171.72;5031233;28;20411;-46
2023/09/26 04:33:09;;;;;;;14.02;9.13;;;;;;;18.33;75.39;102172.59;5031626;28;20037;-43
2023/09/26 04:35:35;;;;;;;16.67;10.18;;;;;;;18.40;75.14;102156.78;5031206;28;20048;-45
2023/09/26 04:38:01;;;;;;;17.13;9.68;;;;;;;18.44;75.57;102158.53;5031503;28;20033;-45
2023/09/26 04:40:27;;;;;;;14.20;8.93;;;;;;;18.50;75.51;102160.31;5031058;28;20040;-40
2023/09/26 04:42:52;;;;;;;15.40;9.50;;;;;;;18.55;75.35;102159.47;5031294;28;20037;-42
2023/09/26 04:45:17;;;;;;;16.08;9.32;;;;;;;18.61;74.81;102148.03;5031448;28;20033;-47
2023/09/26 04:47:43;;;;;;;15.10;10.15;;;;;;;18.55;75.25;102142.72;5030949;28;20124;-43
2023/09/26 04:50:09;;;;;;;15.27;9.77;;;;;;;18.56;75.10;102139.22;5031138;28;20025;-46
2023/09/26 04:52:35;;;;;;;15.00;8.75;;;;;;;18.53;74.97;102145.38;5031145;28;20041;-41
2023/09/26 04:55:01;;;;;;;14.95;8.85;;;;;;;18.55;74.98;102142.72;5031453;28;20029;-40
2023/09/26 04:57:27;;;;;;;11.70;7.53;;;;;;;18.55;74.99;102148.03;5032322;28;20515;-41
2023/09/26 04:59:53;;;;;;;18.55;10.35;;;;;;;18.59;74.92;102148.03;5031695;28;20038;-42
2023/09/26 05:02:18;;;;;;;15.05;8.88;;;;;;;18.56;75.27;102141.88;5030906;28;20389;-44
2023/09/26 05:04:45;;;;;;;15.98;10.63;;;;;;;18.67;75.00;102149.78;5030646;28;20025;-41
2023/09/26 05:07:11;;;;;;;17.23;10.10;;;;;;;18.66;74.82;102146.28;5030848;28;20021;-41
2023/09/26 05:09:39;;;;;;;15.98;10.32;;;;;;;18.65;74.65;102139.25;5030436;28;20102;-42
2023/09/26 05:12:05;;;;;;;17.42;9.93;;;;;;;18.63;75.00;102144.50;5030779;28;20033;-44
2023/09/26 05:14:30;;;;;;;17.92;10.95;;;;;;;18.68;74.64;102136.59;5030408;28;20052;-41
2023/09/26 05:16:55;;;;;;;15.88;9.77;;;;;;;18.66;74.64;102143.66;5030736;28;20103;-42
2023/09/26 05:19:21;;;;;;;19.17;10.98;;;;;;;18.59;75.01;102133.97;5029361;28;20499;-45
2023/09/26 05:21:46;;;;;;;18.85;12.18;;;;;;;18.37;76.31;102138.28;5030542;28;20037;-44
2023/09/26 05:24:11;;;;;;;21.20;11.88;;;;;;;18.47;76.82;102128.63;5030967;28;20033;-42
2023/09/26 05:26:37;;;;;;;18.10;11.52;;;;;;;18.79;75.73;102139.22;5030253;28;20504;-41
2023/09/26 05:29:02;;;;;;;18.48;11.13;;;;;;;18.87;75.35;102140.97;5030738;28;20569;-43
2023/09/26 05:31:31;;;;;;;20.33;11.00;;;;;;;18.90;74.80;102142.75;5028724;28;20022;-45
2023/09/26 05:33:58;;;;;;;16.90;10.48;;;;;;;18.88;74.45;102142.75;5030997;28;20125;-41
2023/09/26 05:36:23;;;;;;;18.70;11.45;;;;;;;18.55;76.07;102142.72;5029893;28;20036;-41
2023/09/26 05:38:48;;;;;;;16.55;11.10;;;;;;;18.63;75.92;102152.44;5030603;28;20116;-43
2023/09/26 05:41:14;;;;;;;16.92;11.00;;;;;;;18.80;75.27;102156.84;5030387;28;20430;-46
2023/09/26 05:43:39;;;;;;;16.80;10.27;;;;;;;18.92;74.23;102157.72;5030080;28;20087;-43
2023/09/26 05:46:05;;;;;;;17.15;10.38;;;;;;;18.94;73.88;102155.97;5030304;28;20026;-42
2023/09/26 05:48:30;;;;;;;14.57;9.75;;;;;;;18.90;73.54;102156.84;5029833;28;20034;-44
2023/09/26 05:50:59;;;;;;;14.57;10.13;;;;;;;18.85;73.70;102157.72;5030271;28;20038;-42
2023/09/26 05:53:25;;;;;;;18.35;11.18;;;;;;;18.77;73.90;102160.38;5030463;28;20038;-43
2023/09/26 05:55:51;;;;;;;16.98;10.85;;;;;;;18.77;73.84;102154.22;5030385;28;20051;-45
2023/09/26 05:58:18;;;;;;;18.33;11.27;;;;;;;18.74;73.97;102156.84;5030254;28;20436;-44
2023/09/26 06:00:45;;;;;;;18.70;10.98;;;;;;;18.76;73.97;102158.63;5029553;28;20057;-44
2023/09/26 06:03:11;;;;;;;15.57;10.27;;;;;;;18.77;74.05;102149.81;5030133;28;20040;-45
2023/09/26 06:05:36;;;;;;;15.02;9.70;;;;;;;18.85;73.95;102145.38;5029652;28;20026;-41
2023/09/26 06:08:01;;;;;;;16.02;9.80;;;;;;;18.82;74.08;102149.81;5030353;28;20079;-44
2023/09/26 06:10:26;;;;;;;13.82;9.93;;;;;;;18.82;74.26;102139.22;5029645;28;20112;-44
2023/09/26 06:12:53;;;;;;;15.23;9.73;;;;;;;18.84;74.50;102141.00;5029923;28;20037;-42
2023/09/26 06:15:18;;;;;;;17.92;11.32;;;;;;;18.82;74.54;102139.22;5029954;28;20398;-42
2023/09/26 06:17:43;;;;;;;15.27;10.32;;;;;;;18.89;74.52;102135.72;5029710;28;20033;-43
2023/09/26 06:20:10;;;;;;;14.48;9.57;;;;;;;18.94;74.58;102129.53;5029771;28;20048;-42
2023/09/26 06:22:35;;;;;;;17.95;11.07;;;;;;;19.01;74.56;102130.41;5032276;28;20484;-42
2023/09/26 06:25:02;;;;;;;17.20;11.00;;;;;;;19.07;74.84;102126.88;5033229;28;20030;-41
2023/09/26 06:27:27;;;;;;;20.90;11.80;;;;;;;19.19;74.68;102129.50;5033414;28;20510;-42
2023/09/26 06:29:52;;;;;;;17.13;11.10;;;;;;;19.36;74.63;102125.03;5031986;28;20045;-42
2023/09/26 06:32:18;;;;;;;17.75;11.18;;;;;;;19.53;74.58;102130.28;5029652;28;20032;-48
2023/09/26 06:34:44;;;;;;;17.83;11.23;;;;;;;19.79;73.75;102131.09;5029284;28;20040;-41
2023/09/26 06:37:10;;;;;;;17.67;11.30;;;;;;;20.02;72.23;102142.44;5029428;28;20038;-42
2023/09/26 06:39:36;;;;;;;17.52;10.93;;;;;;;20.22;71.10;102139.66;5029293;28;20038;-43
2023/09/26 06:42:02;;;;;;;15.82;10.45;;;;;;;20.29;70.51;102127.28;5029707;28;20404;-44
2023/09/26 06:44:28;;;;;;;16.92;11.20;;;;;;;20.34;69.89;102123.72;5029467;28;20029;-41
2023/09/26 06:46:54;;;;;;;17.08;11.57;;;;;;;20.39;69.41;102127.22;5030424;28;20133;-44
2023/09/26 06:49:19;;;;;;;17.55;10.50;;;;;;;20.57;69.37;102123.53;5030009;28;20057;-42
2023/09/26 06:51:45;;;;;;;16.05;10.25;;;;;;;20.88;68.65;102119.75;5028357;28;20088;-42
2023/09/26 06:54:10;;;;;;;15.18;10.85;;;;;;;20.96;66.03;102117.03;5030357;28;20095;-42
2023/09/26 06:56:35;;;;;;;17.10;11.25;;;;;;;21.03;64.95;102122.25;5029378;28;20037;-43
2023/09/26 06:59:01;;;;;;;17.65;11.10;;;;;;;21.03;65.09;102124.03;5031110;28;20042;-40
2023/09/26 07:01:26;;;;;;;20.27;11.57;;;;;;;21.00;65.22;102124.94;5031916;28;20037;-44
2023/09/26 07:03:51;;;;;;;16.35;11.25;;;;;;;21.17;64.80;102131.84;5032764;28;20072;-40
2023/09/26 07:06:17;;;;;;;15.65;10.95;;;;;;;21.75;62.72;102126.75;5029560;28;20026;-50
2023/09/26 07:08:44;;;;;;;16.50;11.20;;;;;;;21.92;61.92;102127.41;5028659;28;20038;-42
2023/09/26 07:11:10;;;;;;;14.75;11.25;;;;;;;22.07;61.37;102124.59;5028415;28;20029;-41
2023/09/26 07:13:36;;;;;;;17.88;11.80;;;;;;;22.09;61.14;102130.75;5026818;28;20144;-40
2023/09/26 07:16:06;;;;;;;16.05;11.23;;;;;;;22.38;59.87;102127.69;5028629;28;20373;-43
2023/09/26 07:18:33;;;;;;;19.10;11.65;;;;;;;21.88;61.34;102124.84;5028173;28;20037;-42
2023/09/26 07:21:05;;;;;;;18.35;12.05;;;;;;;21.38;62.60;102129.00;5028957;28;20065;-42
2023/09/26 07:23:37;;;;;;;17.80;11.68;;;;;;;20.82;65.43;102137.47;5028375;28;20108;-43
2023/09/26 07:26:06;;;;;;;16.23;11.20;;;;;;;21.16;64.43;102135.44;5028321;28;20356;-42
2023/09/26 07:28:31;;;;;;;19.55;11.52;;;;;;;21.34;64.15;102132.59;5028025;28;20030;-41
2023/09/26 07:30:56;;;;;;;16.20;10.77;;;;;;;21.39;64.11;102128.09;5028480;28;20404;-44
2023/09/26 07:33:22;;;;;;;17.15;11.20;;;;;;;21.45;63.79;102128.91;5027856;28;20033;-48
2023/09/26 07:35:51;;;;;;;16.15;10.75;;;;;;;21.51;63.62;102130.59;5028621;28;20123;-43
2023/09/26 07:38:17;;;;;;;16.05;11.10;;;;;;;21.58;63.17;102127.00;5028810;28;20026;-43
2023/09/26 07:40:42;;;;;;;17.08;10.73;;;;;;;20.87;65.10;102117.97;5028093;28;20037;-42
2023/09/26 07:43:07;;;;;;;13.60;9.93;;;;;;;21.12;65.29;102123.03;5028309;28;20036;-42
2023/09/26 07:45:33;;;;;;;14.68;10.07;;;;;;;20.89;65.90;102125.94;5028053;28;20343;-45
2023/09/26 07:47:58;;;;;;;14.50;10.48;;;;;;;20.98;65.62;102133.81;5031026;28;20105;-43
2023/09/26 07:50:23;;;;;;;15.20;10.15;;;;;;;21.20;64.67;102138.03;5031525;28;20108;-44
2023/09/26 07:52:48;;;;;;;16.08;10.07;;;;;;;21.50;64.30;102127.97;5032627;28;20037;-42
2023/09/26 07:55:14;;;;;;;14.00;9.88;;;;;;;21.39;64.50;102125.44;5031969;28;20116;-40
2023/09/26 07:57:39;;;;;;;13.30;9.82;;;;;;;21.60;64.36;102126.94;5031190;28;20037;-40
2023/09/26 08:00:11;;;;;;;15.05;10.13;;;;;;;21.85;63.26;102116.00;5031935;28;20522;-40
2023/09/26 08:02:36;;;;;;;17.63;10.00;;;;;;;22.03;62.95;102119.31;5031567;28;20033;-41
2023/09/26 08:05:01;;;;;;;14.07;9.88;;;;;;;21.80;63.88;102111.66;5031500;28;20427;-42
2023/09/26 08:07:26;;;;;;;13.07;9.50;;;;;;;21.93;63.70;102109.72;5031156;28;20029;-40
2023/09/26 08:09:52;;;;;;;16.45;9.75;;;;;;;22.02;63.70;102105.16;5031866;28;20376;-39
2023/09/26 08:12:17;;;;;;;13.68;9.63;;;;;;;22.35;62.98;102110.88;5031029;28;20037;-41
2023/09/26 08:14:42;;;;;;;12.75;9.52;;;;;;;22.58;62.65;102117.56;5030980;28;20106;-45
2023/09/26 08:17:08;;;;;;;12.43;9.27;;;;;;;22.73;61.48;102112.94;5031780;28;20434;-41
2023/09/26 08:19:33;;;;;;;15.90;9.65;;;;;;;22.56;61.41;102115.88;5030766;28;20038;-42
2023/09/26 08:21:58;;;;;;;13.82;9.38;;;;;;;22.73;61.08;102113.84;5031257;28;20029;-43
2023/09/26 08:24:23;;;;;;;15.60;9.43;;;;;;;22.62;61.32;102111.34;5031329;28;20034;-42
2023/09/26 08:26:49;;;;;;;16.75;10.18;;;;;;;22.33;61.76;102100.28;5032270;28;20452;-43
2023/09/26 08:29:14;;;;;;;13.73;9.20;;;;;;;22.77;60.35;102120.84;5031489;28;20554;-38
2023/09/26 08:31:39;;;;;;;14.05;9.38;;;;;;;22.92;60.67;102117.94;5030930;28;20041;-42
2023/09/26 08:34:05;;;;;;;16.35;10.18;;;;;;;22.88;60.87;102116.19;5031679;28;20033;-43
2023/09/26 08:36:30;;;;;;;14.43;9.90;;;;;;;22.93;60.54;102113.50;5030781;28;20040;-39
2023/09/26 08:38:56;;;;;;;15.52;10.02;;;;;;;22.58;61.27;102109.59;5031605;28;20399;-43
2023/09/26 08:41:24;;;;;;;15.75;10.32;;;;;;;22.56;61.68;102098.16;5031428;28;20045;-41
2023/09/26 08:43:49;;;;;;;14.73;9.52;;;;;;;22.83;61.63;102094.16;5030887;28;20043;-41
2023/09/26 08:46:15;;;;;;;14.73;9.70;;;;;;;23.09;60.01;102101.66;5031328;28;20116;-40
2023/09/26 08:48:42;;;;;;;16.60;9.50;;;;;;;23.05;59.44;102105.28;5031159;28;20057;-43
2023/09/26 08:51:07;;;;;;;12.68;9.82;;;;;;;23.07;59.00;102106.09;5031040;28;20584;-44
2023/09/26 08:53:33;;;;;;;13.50;10.43;;;;;;;22.97;58.86;102108.06;5031097;28;20055;-45
2023/09/26 08:55:58;;;;;;;13.32;9.75;;;;;;;23.00;59.36;102107.13;5031064;28;20107;-42
2023/09/26 08:58:25;;;;;;;14.05;10.48;;;;;;;22.86;59.70;102112.72;5030099;28;20029;-45
2023/09/26 09:00:50;;;;;;;16.02;10.60;;;;;;;22.83;59.98;102109.22;5030715;28;20293;-43
2023/09/26 09:03:16;;;;;;;15.43;11.05;;;;;;;22.75;59.58;102106.69;5030724;28;20584;-46
2023/09/26 09:05:42;;;;;;;13.77;10.60;;;;;;;22.77;60.83;102094.25;5031631;28;20473;-41
2023/09/26 09:08:08;;;;;;;14.52;10.48;;;;;;;22.78;60.52;102092.47;5033374;28;20052;-42
2023/09/26 09:10:54;;;;;;;14.95;10.88;;;;;;;22.56;60.52;102095.50;5029853;28;20068;-45
2023/09/26 09:13:25;;;;;;;18.13;10.85;;;;;;;22.81;59.66;102098.59;5030882;28;20292;-43
2023/09/26 09:15:50;;;;;;;16.10;10.93;;;;;;;22.92;60.45;102090.44;5030384;28;20033;-41
2023/09/26 09:18:29;;;;;;;18.23;11.30;;;;;;;22.86;60.49;102087.91;5030625;28;20038;-42
2023/09/26 09:20:55;;;;;;;16.73;11.45;;;;;;;22.78;60.12;102088.03;5030199;28;20041;-41
2023/09/26 09:23:20;;;;;;;15.38;10.65;;;;;;;23.03;60.21;102097.31;5031356;28;20025;-42
2023/09/26 09:25:45;;;;;;;15.77;11.15;;;;;;;22.97;59.89;102097.44;5028813;28;20443;-41
2023/09/26 09:28:11;;;;;;;14.73;11.13;;;;;;;22.46;61.30;102100.94;5030292;28;20639;-41
2023/09/26 09:30:38;;;;;;;14.27;10.73;;;;;;;22.87;61.31;102105.63;5029518;28;20037;-41
2023/09/26 09:33:06;;;;;;;16.67;10.75;;;;;;;22.55;60.49;102100.81;5030083;28;20037;-41
2023/09/26 09:35:31;;;;;;;15.40;11.07;;;;;;;22.63;60.43;102110.41;5029813;28;20105;-43
2023/09/26 09:37:56;;;;;;;14.32;9.93;;;;;;;22.99;59.65;102100.06;5030272;28;20200;-42
2023/09/26 09:40:24;;;;;;;17.63;11.02;;;;;;;22.70;60.78;102095.22;5030091;28;20048;-44
2023/09/26 09:42:50;;;;;;;15.32;10.65;;;;;;;22.67;60.63;102093.50;5029485;28;20029;-43
2023/09/26 09:45:17;;;;;;;18.15;10.30;;;;;;;23.25;59.81;102096.91;5030154;28;20049;-42
2023/09/26 09:47:46;;;;;;;18.15;10.60;;;;;;;22.69;60.69;102082.84;5029661;28;20116;-43
2023/09/26 09:50:13;;;;;;;18.90;11.00;;;;;;;23.20;59.66;102096.13;5028133;28;20404;-44
2023/09/26 09:52:43;;;;;;;18.52;11.55;;;;;;;22.79;60.83;102084.47;5029018;28;20063;-41
2023/09/26 09:55:13;;;;;;;15.40;9.70;;;;;;;23.41;59.46;102096.59;5030070;28;20512;-43
2023/09/26 09:57:45;;;;;;;17.63;10.40;;;;;;;23.61;58.19;102090.84;5029910;28;20036;-41
2023/09/26 10:00:12;;;;;;;16.25;9.68;;;;;;;23.80;58.16;102088.66;5030710;28;20063;-40
2023/09/26 10:02:37;;;;;;;19.35;10.10;;;;;;;23.80;57.37;102094.88;5028217;28;20040;-45
2023/09/26 10:05:06;;;;;;;14.15;9.48;;;;;;;23.80;57.82;102096.66;5030155;28;20038;-41
2023/09/26 10:07:33;;;;;;;14.70;9.88;;;;;;;24.10;57.30;102095.06;5029116;28;20041;-42
2023/09/26 10:10:00;;;;;;;18.52;9.70;;;;;;;23.86;58.14;102094.75;5029010;28;20098;-41
2023/09/26 10:12:27;;;;;;;14.30;9.30;;;;;;;23.82;57.49;102089.53;5025861;28;20025;-39
2023/09/26 10:14:55;;;;;;;14.93;9.63;;;;;;;24.11;56.22;102084.41;5029429;28;20123;-43
2023/09/26 10:17:20;;;;;;;16.33;9.15;;;;;;;24.08;56.78;102079.16;5029035;28;20080;-45
2023/09/26 10:19:46;;;;;;;12.88;9.23;;;;;;;24.07;56.72;102082.72;5029415;28;20103;-41
2023/09/26 10:22:21;;;;;;;13.38;9.15;;;;;;;24.37;55.40;102080.25;5028639;28;20454;-41
2023/09/26 10:24:52;;;;;;;13.50;8.05;;;;;;;24.64;54.61;102082.25;5029044;28;20036;-44
2023/09/26 10:27:32;;;;;;;11.55;7.40;;;;;;;23.93;55.22;102066.19;5029067;28;20690;-44
2023/09/26 10:29:58;;;;;;;13.40;6.90;;;;;;;24.56;53.91;102054.91;5029279;28;20136;-41
2023/09/26 10:32:39;;;;;;;11.70;6.18;;;;;;;24.89;51.75;102062.03;5028336;28;20499;-40
2023/09/26 10:35:13;;;;;;;10.65;5.78;;;;;;;24.82;50.21;102060.44;5029087;28;20096;-42
2023/09/26 10:37:39;;;;;;;11.40;6.03;;;;;;;24.91;50.63;102056.66;5028639;28;20462;-43
2023/09/26 10:40:10;;;;;;;10.98;5.53;;;;;;;24.83;51.00;102059.47;5027543;28;20465;-46
2023/09/26 10:42:41;;;;;;;9.68;5.25;;;;;;;25.15;49.29;102058.63;5028179;28;20049;-44
2023/09/26 10:45:06;;;;;;;8.82;5.00;;;;;;;24.60;50.21;102057.44;5029003;28;20042;-45
2023/09/26 10:47:36;;;;;;;9.57;4.90;;;;;;;24.98;49.17;102053.78;5028906;28;20072;-47
2023/09/26 10:50:03;;;;;;;10.05;4.50;;;;;;;25.18;48.38;102055.03;5028813;28;20038;-44
2023/09/26 10:52:29;;;;;;;9.65;4.40;;;;;;;24.85;50.15;102041.66;5028365;28;20060;-44
2023/09/26 10:54:55;;;;;;;9.18;4.13;;;;;;;25.11;49.08;102040.09;5028521;28;20056;-42
2023/09/26 10:57:20;;;;;;;6.80;3.70;;;;;;;25.32;47.76;102039.47;5028538;28;20126;-46
2023/09/26 10:59:46;;;;;;;6.50;3.75;;;;;;;25.63;45.80;102037.66;5028709;28;20030;-48
2023/09/26 11:02:12;;;;;;;6.88;3.28;;;;;;;26.04;44.96;102031.03;5028616;28;20041;-43
2023/09/26 11:04:37;;;;;;;6.88;3.40;;;;;;;26.13;44.44;102020.00;5029062;28;20561;-45
2023/09/26 11:07:03;;;;;;;7.90;3.50;;;;;;;25.92;43.92;102025.19;5029400;28;20040;-43
2023/09/26 11:09:29;;;;;;;7.20;3.40;;;;;;;25.94;45.06;102021.53;5029857;28;20503;-42
2023/09/26 11:11:56;;;;;;;7.88;3.17;;;;;;;26.27;44.72;102016.94;5030448;28;20037;-44